createdAt,value
2024-03-05T00:01:38.493Z,99168.28
2024-03-05T00:04:06.988Z,99165.50
2024-03-05T00:06:34.637Z,99158.69
2024-03-05T00:09:02.192Z,99164.22
2024-03-05T00:11:30.165Z,99166.44
2024-03-05T00:13:59.117Z,99175.09
2024-03-05T00:16:28.671Z,99168.06
2024-03-05T00:19:00.612Z,99172.66
2024-03-05T00:21:28.466Z,99175.16
2024-03-05T00:23:56.161Z,99183.16
2024-03-05T00:26:26.698Z,99176.31
2024-03-05T00:28:57.336Z,99191.06
2024-03-05T00:31:25.863Z,99186.78
2024-03-05T00:33:53.354Z,99182.56
2024-03-05T00:36:21.931Z,99186.72
2024-03-05T00:38:49.659Z,99186.97
2024-03-05T00:41:19.427Z,99183.00
2024-03-05T00:43:47.313Z,99191.78
2024-03-05T00:46:15.440Z,99192.97
2024-03-05T00:48:43.377Z,99187.28
2024-03-05T00:51:11.272Z,99181.94
2024-03-05T00:53:39.506Z,99186.84
2024-03-05T00:56:07.510Z,99188.13
2024-03-05T00:58:35.190Z,99178.87
2024-03-05T01:01:04.976Z,99180.44
2024-03-05T01:03:33.254Z,99188.00
2024-03-05T01:06:01.224Z,99189.41
2024-03-05T01:08:29.403Z,99178.09
2024-03-05T01:10:57.405Z,99180.44
2024-03-05T01:13:25.137Z,99184.78
2024-03-05T01:15:53.058Z,99187.28
2024-03-05T01:18:21.691Z,99180.13
2024-03-05T01:20:49.660Z,99185.69
2024-03-05T01:23:18.403Z,99186.09
2024-03-05T01:25:45.950Z,99184.72
2024-03-05T01:28:16.248Z,99188.97
2024-03-05T01:30:44.793Z,99184.84
2024-03-05T01:33:20.994Z,99189.62
2024-03-05T01:35:49.524Z,99192.25
2024-03-05T01:38:17.646Z,99186.78
2024-03-05T01:40:45.998Z,99197.38
2024-03-05T01:43:13.934Z,99191.19
2024-03-05T01:45:44.102Z,99186.56
2024-03-05T01:48:13.141Z,99191.25
2024-03-05T01:50:41.518Z,99190.56
2024-03-05T01:53:12.001Z,99193.91
2024-03-05T01:55:40.522Z,99194.88
2024-03-05T01:58:10.311Z,99192.41
2024-03-05T02:00:38.125Z,99197.03
2024-03-05T02:03:06.336Z,99187.69
2024-03-05T02:05:34.524Z,99181.94
2024-03-05T02:08:04.279Z,99184.78
2024-03-05T02:10:32.476Z,99186.97
2024-03-05T02:13:00.060Z,99197.25
2024-03-05T02:15:27.661Z,99187.25
2024-03-05T02:17:55.610Z,99188.81
2024-03-05T02:20:23.835Z,99194.66
2024-03-05T02:22:51.486Z,99186.56
2024-03-05T02:25:21.788Z,99191.41
2024-03-05T02:27:50.760Z,99198.03
2024-03-05T02:30:19.094Z,99195.38
2024-03-05T02:32:47.481Z,99202.78
2024-03-05T02:35:15.189Z,99200.09
2024-03-05T02:37:43.902Z,99205.19
2024-03-05T02:40:14.911Z,99199.47
2024-03-05T02:42:43.973Z,99203.28
2024-03-05T02:45:14.476Z,99198.59
2024-03-05T02:47:42.437Z,99201.37
2024-03-05T02:50:12.000Z,99201.09
2024-03-05T02:52:40.477Z,99201.63
2024-03-05T02:55:12.091Z,99211.09
2024-03-05T02:57:42.460Z,99201.50
2024-03-05T03:00:11.653Z,99196.53
2024-03-05T03:02:39.740Z,99202.56
2024-03-05T03:05:08.022Z,99201.63
2024-03-05T03:07:36.848Z,99201.94
2024-03-05T03:10:06.608Z,99211.91
2024-03-05T03:12:34.129Z,99212.75
2024-03-05T03:15:01.606Z,99211.19
2024-03-05T03:17:32.112Z,99213.28
2024-03-05T03:20:00.792Z,99215.19
2024-03-05T03:22:29.842Z,99215.09
2024-03-05T03:24:59.535Z,99210.97
2024-03-05T03:27:26.991Z,99214.47
2024-03-05T03:29:54.849Z,99209.31
2024-03-05T03:32:22.411Z,99214.88
2024-03-05T03:34:50.011Z,99221.63
2024-03-05T03:37:18.074Z,99229.53
2024-03-05T03:39:47.670Z,99223.25
2024-03-05T03:42:15.990Z,99235.88
2024-03-05T03:44:43.848Z,99232.59
2024-03-05T03:47:11.407Z,99239.22
2024-03-05T03:49:39.093Z,99236.25
2024-03-05T03:52:07.086Z,99232.56
2024-03-05T03:54:35.679Z,99236.97
2024-03-05T03:57:03.638Z,99231.75
2024-03-05T03:59:31.517Z,99233.09
2024-03-05T04:01:59.134Z,99237.81
2024-03-05T04:04:27.090Z,99228.12
2024-03-05T04:06:54.829Z,99231.31
2024-03-05T04:09:22.468Z,99224.00
2024-03-05T04:11:50.533Z,99230.97
2024-03-05T04:14:18.129Z,99234.97
2024-03-05T04:16:45.984Z,99238.94
2024-03-05T04:19:14.058Z,99242.62
2024-03-05T04:21:43.491Z,99241.53
2024-03-05T04:24:15.059Z,99235.62
2024-03-05T04:26:43.851Z,99235.72
2024-03-05T04:29:17.898Z,99238.69
2024-03-05T04:31:56.334Z,99239.28
2024-03-05T04:34:24.287Z,99232.78
2024-03-05T04:36:55.610Z,99243.22
2024-03-05T04:39:25.037Z,99243.84
2024-03-05T04:41:52.886Z,99236.56
2024-03-05T04:44:20.640Z,99242.62
2024-03-05T04:46:48.195Z,99239.28
2024-03-05T04:49:16.340Z,99239.22
2024-03-05T04:51:44.028Z,99241.75
2024-03-05T04:54:12.358Z,99234.94
2024-03-05T04:56:40.867Z,99247.13
2024-03-05T04:59:08.646Z,99236.06
2024-03-05T05:01:36.438Z,99242.62
2024-03-05T05:04:04.350Z,99240.06
2024-03-05T05:06:33.553Z,99241.50
2024-03-05T05:09:01.436Z,99239.84
2024-03-05T05:11:29.455Z,99244.38
2024-03-05T05:13:57.098Z,99245.53
2024-03-05T05:16:25.649Z,99248.09
2024-03-05T05:18:53.972Z,99247.72
2024-03-05T05:21:21.738Z,99243.28
2024-03-05T05:23:49.748Z,99252.00
2024-03-05T05:26:17.798Z,99247.00
2024-03-05T05:28:45.423Z,99252.44
2024-03-05T05:31:25.661Z,99259.59
2024-03-05T05:33:54.622Z,99260.66
2024-03-05T05:36:22.421Z,99263.66
2024-03-05T05:38:51.651Z,99272.66
2024-03-05T05:41:19.836Z,99260.38
2024-03-05T05:43:47.615Z,99263.50
2024-03-05T05:46:16.154Z,99267.16
2024-03-05T05:48:44.481Z,99269.34
2024-03-05T05:51:11.939Z,99269.03
2024-03-05T05:53:39.905Z,99264.91
2024-03-05T05:56:08.167Z,99269.34
2024-03-05T05:58:36.920Z,99271.69
2024-03-05T06:01:10.981Z,99270.81
2024-03-05T06:03:38.897Z,99268.78
2024-03-05T06:06:07.931Z,99275.94
2024-03-05T06:08:36.443Z,99276.78
2024-03-05T06:11:04.531Z,99265.91
2024-03-05T06:13:32.080Z,99275.63
2024-03-05T06:15:59.741Z,99274.63
2024-03-05T06:18:29.712Z,99269.91
2024-03-05T06:20:58.338Z,99281.16
2024-03-05T06:23:25.815Z,99279.56
2024-03-05T06:25:54.112Z,99283.53
2024-03-05T06:28:21.626Z,99282.69
2024-03-05T06:30:52.493Z,99285.19
2024-03-05T06:33:20.451Z,99280.62
2024-03-05T06:35:49.339Z,99291.56
2024-03-05T06:38:16.942Z,99291.31
2024-03-05T06:40:44.820Z,99293.53
2024-03-05T06:43:21.984Z,99301.38
2024-03-05T06:45:51.043Z,99303.69
2024-03-05T06:48:24.714Z,99300.13
2024-03-05T06:50:58.826Z,99309.34
2024-03-05T06:53:45.195Z,99306.50
2024-03-05T06:56:32.476Z,99304.81
2024-03-05T06:59:01.230Z,99310.97
2024-03-05T07:01:29.473Z,99309.41
2024-03-05T07:03:57.908Z,99314.87
2024-03-05T07:06:25.413Z,99319.72
2024-03-05T07:08:56.247Z,99323.91
2024-03-05T07:11:27.185Z,99325.28
2024-03-05T07:13:56.981Z,99320.84
2024-03-05T07:16:25.715Z,99323.94
2024-03-05T07:18:57.009Z,99333.38
2024-03-05T07:21:26.051Z,99336.13
2024-03-05T07:23:55.235Z,99328.63
2024-03-05T07:26:24.729Z,99336.56
2024-03-05T07:28:53.662Z,99327.50
2024-03-05T07:31:21.276Z,99335.63
2024-03-05T07:33:52.793Z,99343.75
2024-03-05T07:36:22.521Z,99342.78
2024-03-05T07:38:50.171Z,99338.25
2024-03-05T07:41:29.211Z,99340.81
2024-03-05T07:44:04.216Z,99343.72
2024-03-05T07:46:34.079Z,99343.25
2024-03-05T07:49:02.364Z,99349.75
2024-03-05T07:51:40.746Z,99350.06
2024-03-05T07:54:12.697Z,99350.28
2024-03-05T07:56:41.763Z,99353.50
2024-03-05T07:59:10.221Z,99351.34
2024-03-05T08:01:38.934Z,99355.78
2024-03-05T08:04:07.137Z,99354.59
2024-03-05T08:06:34.899Z,99354.91
2024-03-05T08:09:03.578Z,99359.75
2024-03-05T08:11:31.462Z,99357.25
2024-03-05T08:13:59.244Z,99355.34
2024-03-05T08:16:27.787Z,99351.06
2024-03-05T08:18:56.781Z,99354.25
2024-03-05T08:21:24.728Z,99356.66
2024-03-05T08:23:55.054Z,99359.31
2024-03-05T08:26:23.913Z,99361.97
2024-03-05T08:28:51.791Z,99362.78
2024-03-05T08:31:19.475Z,99359.56
2024-03-05T08:33:48.312Z,99365.44
2024-03-05T08:36:16.317Z,99363.78
2024-03-05T08:38:46.198Z,99366.03
2024-03-05T08:41:13.932Z,99364.72
2024-03-05T08:43:41.797Z,99359.97
2024-03-05T08:46:09.685Z,99363.03
2024-03-05T08:48:37.777Z,99356.19
2024-03-05T08:51:05.454Z,99363.69
2024-03-05T08:53:36.591Z,99360.78
2024-03-05T08:56:04.880Z,99354.13
2024-03-05T08:58:32.413Z,99361.44
2024-03-05T09:01:00.136Z,99361.56
2024-03-05T09:03:28.015Z,99359.84
2024-03-05T09:05:55.628Z,99360.63
2024-03-05T09:08:23.169Z,99366.59
2024-03-05T09:10:51.195Z,99365.38
2024-03-05T09:13:18.741Z,99367.63
2024-03-05T09:15:46.377Z,99363.91
2024-03-05T09:18:15.914Z,99367.50
2024-03-05T09:20:44.562Z,99372.81
2024-03-05T09:23:12.631Z,99364.62
2024-03-05T09:25:43.361Z,99364.94
2024-03-05T09:28:12.386Z,99364.34
2024-03-05T09:30:40.585Z,99365.41
2024-03-05T09:33:12.105Z,99361.41
2024-03-05T09:35:41.994Z,99355.44
2024-03-05T09:38:10.329Z,99355.41
2024-03-05T09:40:40.202Z,99358.41
2024-03-05T09:43:08.852Z,99351.25
2024-03-05T09:45:38.390Z,99349.88
2024-03-05T09:48:06.627Z,99346.78
2024-03-05T09:50:34.739Z,99347.78
2024-03-05T09:53:03.380Z,99351.44
2024-03-05T09:55:33.116Z,99350.81
2024-03-05T09:58:03.970Z,99361.37
2024-03-05T10:00:31.949Z,99358.81
2024-03-05T10:03:00.113Z,99356.91
2024-03-05T10:05:27.751Z,99352.44
2024-03-05T10:07:55.767Z,99363.50
2024-03-05T10:10:23.843Z,99360.78
2024-03-05T10:12:51.697Z,99355.28
2024-03-05T10:15:27.006Z,99364.84
2024-03-05T10:17:56.812Z,99363.19
2024-03-05T10:20:39.372Z,99367.59
2024-03-05T10:23:09.182Z,99364.56
2024-03-05T10:25:38.115Z,99360.37
2024-03-05T10:28:07.495Z,99367.41
2024-03-05T10:30:37.831Z,99366.16
2024-03-05T10:33:09.113Z,99363.59
2024-03-05T10:35:39.822Z,99366.06
2024-03-05T10:38:11.579Z,99365.00
2024-03-05T10:40:45.825Z,99362.91
2024-03-05T10:43:20.317Z,99364.84
2024-03-05T10:45:49.195Z,99365.84
2024-03-05T10:48:20.002Z,99364.41
2024-03-05T10:50:50.171Z,99359.41
2024-03-05T10:53:18.388Z,99360.13
2024-03-05T10:55:48.996Z,99350.25
2024-03-05T10:58:38.262Z,99371.53
2024-03-05T11:01:10.378Z,99369.72
2024-03-05T11:03:39.604Z,99358.97
2024-03-05T11:06:08.256Z,99361.91
2024-03-05T11:08:37.602Z,99348.00
2024-03-05T11:11:11.524Z,99358.34
2024-03-05T11:13:40.851Z,99350.94
2024-03-05T11:16:09.817Z,99356.47
2024-03-05T11:18:39.156Z,99356.03
2024-03-05T11:21:08.464Z,99352.81
2024-03-05T11:23:42.906Z,99355.38
2024-03-05T11:26:21.569Z,99359.13
2024-03-05T11:28:50.184Z,99358.97
2024-03-05T11:31:21.490Z,99356.66
2024-03-05T11:34:03.681Z,99358.34
2024-03-05T11:36:37.877Z,99355.34
2024-03-05T11:39:16.728Z,99359.59
2024-03-05T11:41:46.243Z,99352.78
2024-03-05T11:44:15.857Z,99362.44
2024-03-05T11:46:44.862Z,99354.66
2024-03-05T11:49:16.532Z,99360.94
2024-03-05T11:51:45.868Z,99350.28
2024-03-05T11:54:15.382Z,99347.03
2024-03-05T11:56:44.821Z,99354.03
2024-03-05T11:59:13.761Z,99350.19
2024-03-05T12:01:45.358Z,99344.38
2024-03-05T12:04:14.546Z,99340.59
2024-03-05T12:06:45.805Z,99344.59
2024-03-05T12:09:22.170Z,99343.72
2024-03-05T12:12:07.815Z,99345.50
2024-03-05T12:14:37.735Z,99343.41
2024-03-05T12:17:08.774Z,99337.94
2024-03-05T12:19:41.514Z,99341.12
2024-03-05T12:22:10.463Z,99341.50
2024-03-05T12:24:40.123Z,99333.94
2024-03-05T12:27:08.070Z,99348.00
2024-03-05T12:29:41.261Z,99334.19
2024-03-05T12:32:12.234Z,99337.34
2024-03-05T12:34:48.470Z,99340.69
2024-03-05T12:37:17.567Z,99342.50
2024-03-05T12:39:45.439Z,99338.16
2024-03-05T12:42:15.317Z,99331.09
2024-03-05T12:44:44.137Z,99330.25
2024-03-05T12:47:15.371Z,99329.13
2024-03-05T12:49:48.235Z,99329.69
2024-03-05T12:52:20.917Z,99329.25
2024-03-05T12:55:06.127Z,99329.13
2024-03-05T12:57:35.681Z,99339.41
2024-03-05T13:00:16.951Z,99333.22
2024-03-05T13:02:44.727Z,99335.88
2024-03-05T13:05:13.424Z,99334.66
2024-03-05T13:07:42.567Z,99323.25
2024-03-05T13:10:12.969Z,99324.22
2024-03-05T13:12:43.205Z,99329.41
2024-03-05T13:15:11.127Z,99329.69
2024-03-05T13:17:38.894Z,99334.06
2024-03-05T13:20:20.036Z,99331.69
2024-03-05T13:22:48.813Z,99329.41
2024-03-05T13:25:16.838Z,99328.88
2024-03-05T13:27:46.218Z,99330.53
2024-03-05T13:30:17.911Z,99331.53
2024-03-05T13:32:47.143Z,99331.25
2024-03-05T13:35:16.099Z,99337.09
2024-03-05T13:37:44.778Z,99336.44
2024-03-05T13:40:13.372Z,99340.09
2024-03-05T13:42:41.003Z,99345.47
2024-03-05T13:45:13.504Z,99340.25
2024-03-05T13:47:41.567Z,99334.97
2024-03-05T13:50:11.866Z,99336.25
2024-03-05T13:52:44.161Z,99348.66
2024-03-05T13:55:13.570Z,99351.84
2024-03-05T13:57:41.335Z,99340.66
2024-03-05T14:00:10.960Z,99351.63
2024-03-05T14:02:41.080Z,99346.09
2024-03-05T14:05:12.520Z,99347.50
2024-03-05T14:07:41.717Z,99353.66
2024-03-05T14:10:11.665Z,99341.06
2024-03-05T14:12:40.403Z,99356.94
2024-03-05T14:15:22.655Z,99352.44
2024-03-05T14:17:54.644Z,99351.56
2024-03-05T14:20:25.190Z,99359.91
2024-03-05T14:22:55.784Z,99347.81
2024-03-05T14:25:24.096Z,99354.84
2024-03-05T14:27:52.278Z,99361.78
2024-03-05T14:30:21.013Z,99360.50
2024-03-05T14:32:49.436Z,99364.69
2024-03-05T14:35:17.863Z,99364.47
2024-03-05T14:37:46.520Z,99378.66
2024-03-05T14:40:17.225Z,99368.56
2024-03-05T14:42:45.797Z,99370.03
2024-03-05T14:45:17.491Z,99374.59
2024-03-05T14:47:50.105Z,99370.91
2024-03-05T14:50:19.328Z,99370.00
2024-03-05T14:52:47.547Z,99374.22
2024-03-05T14:55:15.295Z,99374.81
2024-03-05T14:57:45.091Z,99370.22
2024-03-05T15:00:17.365Z,99374.13
2024-03-05T15:02:48.693Z,99375.22
2024-03-05T15:05:17.385Z,99377.91
2024-03-05T15:07:46.189Z,99374.84
2024-03-05T15:10:17.397Z,99383.53
2024-03-05T15:12:50.002Z,99383.53
2024-03-05T15:15:18.632Z,99390.63
2024-03-05T15:17:52.461Z,99397.78
2024-03-05T15:20:20.577Z,99391.25
2024-03-05T15:22:50.372Z,99400.22
2024-03-05T15:25:21.569Z,99403.22
2024-03-05T15:28:00.833Z,99409.50
2024-03-05T15:30:34.794Z,99407.59
2024-03-05T15:33:05.271Z,99411.25
2024-03-05T15:35:33.838Z,99415.66
2024-03-05T15:38:03.482Z,99419.00
2024-03-05T15:40:34.883Z,99425.78
2024-03-05T15:43:07.320Z,99428.00
2024-03-05T15:45:39.673Z,99431.66
2024-03-05T15:48:11.537Z,99434.56
2024-03-05T15:50:43.487Z,99434.91
2024-03-05T15:53:11.897Z,99432.62
2024-03-05T15:55:44.074Z,99439.50
2024-03-05T15:58:20.784Z,99445.81
2024-03-05T16:00:52.243Z,99456.38
2024-03-05T16:03:20.163Z,99446.38
2024-03-05T16:05:56.401Z,99459.28
2024-03-05T16:08:32.464Z,99456.09
2024-03-05T16:11:01.038Z,99464.66
2024-03-05T16:13:31.945Z,99471.94
2024-03-05T16:16:00.244Z,99479.50
2024-03-05T16:18:28.390Z,99477.16
2024-03-05T16:20:56.123Z,99488.47
2024-03-05T16:23:26.589Z,99480.69
2024-03-05T16:25:54.539Z,99476.44
2024-03-05T16:28:22.218Z,99488.72
2024-03-05T16:30:50.760Z,99490.34
2024-03-05T16:33:18.597Z,99489.69
2024-03-05T16:35:48.037Z,99495.53
2024-03-05T16:38:16.620Z,99490.34
2024-03-05T16:40:44.559Z,99498.50
2024-03-05T16:43:13.160Z,99502.78
2024-03-05T16:45:41.875Z,99500.84
2024-03-05T16:48:10.990Z,99506.84
2024-03-05T16:50:42.281Z,99507.72
2024-03-05T16:53:11.476Z,99509.81
2024-03-05T16:55:40.625Z,99519.84
2024-03-05T16:58:12.747Z,99517.19
2024-03-05T17:00:53.793Z,99522.66
2024-03-05T17:03:23.442Z,99529.13
2024-03-05T17:05:55.517Z,99528.16
2024-03-05T17:08:25.360Z,99538.50
2024-03-05T17:10:55.274Z,99539.44
2024-03-05T17:13:27.009Z,99546.59
2024-03-05T17:16:04.826Z,99545.22
2024-03-05T17:18:35.945Z,99543.53
2024-03-05T17:21:05.936Z,99541.81
2024-03-05T17:23:35.985Z,99549.97
2024-03-05T17:26:04.270Z,99552.94
2024-03-05T17:28:33.314Z,99552.44
2024-03-05T17:31:01.038Z,99553.34
2024-03-05T17:33:29.768Z,99551.84
2024-03-05T17:35:58.662Z,99549.59
2024-03-05T17:38:30.304Z,99560.13
2024-03-05T17:41:02.272Z,99558.19
2024-03-05T17:43:31.513Z,99560.22
2024-03-05T17:46:00.582Z,99568.03
2024-03-05T17:48:28.884Z,99565.44
2024-03-05T17:50:56.865Z,99571.78
2024-03-05T17:53:24.906Z,99570.41
2024-03-05T17:55:52.545Z,99568.34
2024-03-05T17:58:20.913Z,99566.56
2024-03-05T18:00:48.652Z,99570.47
2024-03-05T18:03:16.627Z,99572.47
2024-03-05T18:05:46.841Z,99577.31
2024-03-05T18:08:15.036Z,99573.38
2024-03-05T18:10:43.440Z,99576.44
2024-03-05T18:13:11.511Z,99578.09
2024-03-05T18:15:40.371Z,99583.72
2024-03-05T18:18:08.457Z,99580.75
2024-03-05T18:20:36.916Z,99583.19
2024-03-05T18:23:06.278Z,99587.97
2024-03-05T18:25:35.842Z,99589.22
2024-03-05T18:28:06.188Z,99588.25
2024-03-05T18:30:45.642Z,99588.53
2024-03-05T18:33:13.418Z,99593.28
2024-03-05T18:35:42.088Z,99605.16
2024-03-05T18:38:20.559Z,99593.62
2024-03-05T18:40:58.274Z,99586.28
2024-03-05T18:43:29.930Z,99597.19
2024-03-05T18:46:00.645Z,99596.31
2024-03-05T18:48:29.259Z,99601.53
2024-03-05T18:50:58.067Z,99603.59
2024-03-05T18:53:35.897Z,99596.09
2024-03-05T18:56:13.036Z,99606.13
2024-03-05T18:58:42.737Z,99607.06
2024-03-05T19:01:11.724Z,99607.63
2024-03-05T19:03:41.175Z,99614.09
2024-03-05T19:06:09.129Z,99609.59
2024-03-05T19:08:39.628Z,99612.09
2024-03-05T19:11:11.236Z,99608.03
2024-03-05T19:13:40.459Z,99616.66
2024-03-05T19:16:08.536Z,99610.66
2024-03-05T19:18:37.034Z,99611.19
2024-03-05T19:21:07.091Z,99608.38
2024-03-05T19:23:34.989Z,99608.97
2024-03-05T19:26:03.809Z,99608.34
2024-03-05T19:28:35.784Z,99621.75
2024-03-05T19:31:05.693Z,99620.41
2024-03-05T19:33:35.461Z,99619.22
2024-03-05T19:36:05.499Z,99618.00
2024-03-05T19:38:35.722Z,99613.28
2024-03-05T19:41:04.158Z,99620.00
2024-03-05T19:43:37.032Z,99622.66
2024-03-05T19:46:05.998Z,99616.41
2024-03-05T19:48:34.210Z,99616.81
2024-03-05T19:51:05.212Z,99622.81
2024-03-05T19:53:33.294Z,99616.12
2024-03-05T19:56:01.081Z,99617.53
2024-03-05T19:58:29.521Z,99622.66
2024-03-05T20:00:58.236Z,99625.88
2024-03-05T20:03:29.135Z,99623.56
2024-03-05T20:05:57.753Z,99627.50
2024-03-05T20:08:27.608Z,99623.25
2024-03-05T20:10:57.052Z,99621.44
2024-03-05T20:13:25.708Z,99618.72
2024-03-05T20:15:53.582Z,99622.72
2024-03-05T20:18:22.512Z,99622.56
2024-03-05T20:20:50.270Z,99618.19
2024-03-05T20:23:19.015Z,99624.72
2024-03-05T20:25:47.197Z,99631.00
2024-03-05T20:28:16.409Z,99630.31
2024-03-05T20:30:46.096Z,99620.56
2024-03-05T20:33:14.751Z,99624.53
2024-03-05T20:35:45.158Z,99620.84
2024-03-05T20:38:13.489Z,99630.50
2024-03-05T20:40:42.842Z,99620.25
2024-03-05T20:43:12.071Z,99612.37
2024-03-05T20:45:39.782Z,99620.50
2024-03-05T20:48:08.393Z,99614.59
2024-03-05T20:50:36.649Z,99617.69
2024-03-05T20:53:04.630Z,99609.25
2024-03-05T20:55:32.708Z,99615.59
2024-03-05T20:58:01.433Z,99612.50
2024-03-05T21:00:29.506Z,99623.19
2024-03-05T21:02:57.396Z,99615.84
2024-03-05T21:05:25.513Z,99622.34
2024-03-05T21:07:55.395Z,99619.53
2024-03-05T21:10:24.859Z,99622.66
2024-03-05T21:12:52.713Z,99621.25
2024-03-05T21:15:21.594Z,99623.41
2024-03-05T21:17:49.674Z,99631.03
2024-03-05T21:20:17.637Z,99624.47
2024-03-05T21:22:45.683Z,99625.25
2024-03-05T21:25:13.738Z,99621.72
2024-03-05T21:27:42.026Z,99626.19
2024-03-05T21:30:13.038Z,99623.31
2024-03-05T21:32:43.473Z,99618.44
2024-03-05T21:35:11.640Z,99626.53
2024-03-05T21:37:39.924Z,99620.69
2024-03-05T21:40:14.962Z,99629.91
2024-03-05T21:42:45.104Z,99620.44
2024-03-05T21:45:16.050Z,99628.22
2024-03-05T21:47:45.032Z,99623.41
2024-03-05T21:50:13.511Z,99630.53
2024-03-05T21:52:41.473Z,99624.75
2024-03-05T21:55:09.689Z,99631.50
2024-03-05T21:57:41.041Z,99631.81
2024-03-05T22:00:12.894Z,99628.00
2024-03-05T22:02:42.783Z,99632.41
2024-03-05T22:05:12.616Z,99641.25
2024-03-05T22:07:40.867Z,99642.34
2024-03-05T22:10:09.367Z,99643.59
2024-03-05T22:12:41.115Z,99637.72
2024-03-05T22:15:10.386Z,99643.87
2024-03-05T22:17:39.090Z,99649.25
2024-03-05T22:20:09.539Z,99643.87
2024-03-05T22:22:37.922Z,99647.75
2024-03-05T22:25:08.181Z,99653.13
2024-03-05T22:27:36.028Z,99653.75
2024-03-05T22:30:05.395Z,99661.09
2024-03-05T22:32:33.089Z,99660.38
2024-03-05T22:35:00.877Z,99664.06
2024-03-05T22:37:29.930Z,99668.69
2024-03-05T22:39:59.516Z,99679.75
2024-03-05T22:42:27.292Z,99670.56
2024-03-05T22:44:55.146Z,99670.16
2024-03-05T22:47:23.075Z,99671.81
2024-03-05T22:49:50.856Z,99676.69
2024-03-05T22:52:20.061Z,99675.91
2024-03-05T22:54:48.472Z,99669.66
2024-03-05T22:57:16.213Z,99673.47
2024-03-05T22:59:44.048Z,99673.69
2024-03-05T23:02:12.180Z,99679.34
2024-03-05T23:04:40.101Z,99683.78
2024-03-05T23:07:07.819Z,99677.12
2024-03-05T23:09:35.847Z,99677.12
2024-03-05T23:12:05.470Z,99685.03
2024-03-05T23:14:33.213Z,99691.00
2024-03-05T23:17:04.267Z,99689.22
2024-03-05T23:19:31.786Z,99687.59
2024-03-05T23:22:00.059Z,99689.84
2024-03-05T23:24:27.659Z,99688.91
2024-03-05T23:26:55.095Z,99688.91
2024-03-05T23:29:26.066Z,99691.91
2024-03-05T23:31:53.641Z,99695.75
2024-03-05T23:34:21.587Z,99698.94
2024-03-05T23:36:49.427Z,99700.09
2024-03-05T23:39:17.012Z,99685.62
2024-03-05T23:41:45.463Z,99697.28
2024-03-05T23:44:13.884Z,99691.81
2024-03-05T23:46:41.557Z,99693.72
2024-03-05T23:49:09.162Z,99689.66
2024-03-05T23:51:36.905Z,99695.19
2024-03-05T23:54:04.465Z,99692.72
2024-03-05T23:56:33.252Z,99690.53
2024-03-05T23:59:01.241Z,99688.56
